createdAt,value
2019-04-14T00:00:49.465Z,5.28
2019-04-14T00:03:36.922Z,5.28
2019-04-14T00:06:04.845Z,5.28
2019-04-14T00:08:32.614Z,5.28
2019-04-14T00:10:59.472Z,5.28
2019-04-14T00:13:26.267Z,5.26
2019-04-14T00:15:53.824Z,5.22
2019-04-14T00:18:21.530Z,5.20
2019-04-14T00:20:49.169Z,5.20
2019-04-14T00:23:15.854Z,5.20
2019-04-14T00:25:43.403Z,5.23
2019-04-14T00:28:10.079Z,5.22
2019-04-14T00:30:36.688Z,5.20
2019-04-14T00:33:04.643Z,5.22
2019-04-14T00:35:58.020Z,5.23
2019-04-14T00:38:28.359Z,5.26
2019-04-14T00:41:09.388Z,5.27
2019-04-14T00:43:59.741Z,5.25
2019-04-14T00:46:45.891Z,5.22
2019-04-14T00:49:13.514Z,5.20
2019-04-14T00:51:41.232Z,5.20
2019-04-14T00:54:08.858Z,5.17
2019-04-14T00:56:36.690Z,5.17
2019-04-14T00:59:03.506Z,5.13
2019-04-14T01:01:30.821Z,5.10
2019-04-14T01:03:57.517Z,5.09
2019-04-14T01:06:25.072Z,5.05
2019-04-14T01:08:51.719Z,5.04
2019-04-14T01:11:18.343Z,5.04
2019-04-14T01:13:46.156Z,5.02
2019-04-14T01:16:17.418Z,5.04
2019-04-14T01:18:41.512Z,5.02
2019-04-14T01:21:08.928Z,4.98
2019-04-14T01:23:36.845Z,4.96
2019-04-14T01:26:04.929Z,4.93
2019-04-14T01:28:32.892Z,4.93
2019-04-14T01:30:59.642Z,4.92
2019-04-14T01:33:27.268Z,4.86
2019-04-14T01:35:55.208Z,4.85
2019-04-14T01:38:23.234Z,4.84
2019-04-14T01:40:51.016Z,4.85
2019-04-14T01:43:18.842Z,4.82
2019-04-14T01:45:58.113Z,4.81
2019-04-14T01:48:14.827Z,4.79
2019-04-14T01:51:13.531Z,4.80
2019-04-14T01:53:58.194Z,4.80
2019-04-14T01:56:42.951Z,4.81
2019-04-14T01:59:10.766Z,4.80
2019-04-14T02:01:38.961Z,4.80
2019-04-14T02:04:05.668Z,4.80
2019-04-14T02:06:33.346Z,4.79
2019-04-14T02:09:01.168Z,4.78
2019-04-14T02:11:29.087Z,4.74
2019-04-14T02:13:57.137Z,4.73
2019-04-14T02:16:32.782Z,4.71
2019-04-14T02:18:54.073Z,4.70
2019-04-14T02:21:21.597Z,4.67
2019-04-14T02:23:49.676Z,4.63
2019-04-14T02:26:17.560Z,4.61
2019-04-14T02:28:44.344Z,4.60
2019-04-14T02:31:24.883Z,4.58
2019-04-14T02:34:13.017Z,4.58
2019-04-14T02:39:07.193Z,4.58
2019-04-14T02:44:04.613Z,4.56
2019-04-14T02:46:31.398Z,4.54
2019-04-14T02:48:58.392Z,4.54
2019-04-14T02:51:26.974Z,4.53
2019-04-14T02:56:23.843Z,4.53
2019-04-14T02:58:51.986Z,4.53
2019-04-14T03:03:54.260Z,4.53
2019-04-14T03:06:14.646Z,4.53
2019-04-14T03:11:09.348Z,4.54
2019-04-14T03:13:58.442Z,4.56
2019-04-14T03:16:13.747Z,4.55
2019-04-14T03:19:08.865Z,4.55
2019-04-14T03:22:18.399Z,4.55
2019-04-14T03:24:46.615Z,4.57
2019-04-14T03:27:43.865Z,4.60
2019-04-14T03:30:54.624Z,4.61
2019-04-14T03:35:52.508Z,4.63
2019-04-14T03:37:51.096Z,4.63
2019-04-14T03:40:18.223Z,4.64
2019-04-14T03:42:49.387Z,4.63
2019-04-14T03:45:16.516Z,4.65
2019-04-14T03:47:57.761Z,4.63
2019-04-14T03:50:11.656Z,4.62
2019-04-14T03:54:57.009Z,4.60
2019-04-14T03:57:10.344Z,4.59
2019-04-14T03:59:37.156Z,4.58
2019-04-14T04:02:03.779Z,4.57
2019-04-14T04:04:31.498Z,4.57
2019-04-14T04:06:59.516Z,4.57
2019-04-14T04:09:49.642Z,4.57
2019-04-14T04:12:16.378Z,4.62
2019-04-14T04:14:44.109Z,4.60
2019-04-14T04:17:34.046Z,4.56
2019-04-14T04:20:19.663Z,4.52
2019-04-14T04:23:05.900Z,4.47
2019-04-14T04:25:44.414Z,4.42
2019-04-14T04:28:30.644Z,4.57
2019-04-14T04:31:13.378Z,4.95
2019-04-14T04:33:50.174Z,5.33
2019-04-14T04:36:22.486Z,6.00
2019-04-14T04:38:55.367Z,6.80
2019-04-14T04:41:23.175Z,7.39
2019-04-14T04:43:50.025Z,7.50
2019-04-14T04:46:17.655Z,7.80
2019-04-14T04:48:57.416Z,7.92
2019-04-14T04:51:13.885Z,8.17
2019-04-14T04:53:41.882Z,8.36
2019-04-14T04:56:08.652Z,8.42
2019-04-14T04:58:35.242Z,8.34
2019-04-14T05:01:01.843Z,8.37
2019-04-14T05:03:29.629Z,8.43
2019-04-14T05:06:28.790Z,8.71
2019-04-14T05:08:59.109Z,8.67
2019-04-14T05:11:33.920Z,8.58
2019-04-14T05:14:04.396Z,8.29
2019-04-14T05:16:32.394Z,8.05
2019-04-14T05:19:14.082Z,7.91
2019-04-14T05:21:30.382Z,7.81
2019-04-14T05:23:58.051Z,7.76
2019-04-14T05:26:24.805Z,7.77
2019-04-14T05:28:52.666Z,7.83
2019-04-14T05:31:20.637Z,7.93
2019-04-14T05:33:47.540Z,8.03
2019-04-14T05:36:15.018Z,8.12
2019-04-14T05:38:42.763Z,8.16
2019-04-14T05:41:09.572Z,8.19
2019-04-14T05:43:45.016Z,8.19
2019-04-14T05:46:05.557Z,8.07
2019-04-14T05:48:35.697Z,7.63
2019-04-14T05:51:02.496Z,7.18
2019-04-14T05:53:30.584Z,6.81
2019-04-14T05:55:57.233Z,6.52
2019-04-14T05:58:23.857Z,6.34
2019-04-14T06:00:51.739Z,6.19
2019-04-14T06:03:19.102Z,6.27
2019-04-14T06:05:45.827Z,6.43
2019-04-14T06:08:12.455Z,6.42
2019-04-14T06:10:39.059Z,6.40
2019-04-14T06:13:05.676Z,6.38
2019-04-14T06:15:32.957Z,6.30
2019-04-14T06:17:59.553Z,6.32
2019-04-14T06:20:26.166Z,6.23
2019-04-14T06:22:52.768Z,6.29
2019-04-14T06:25:19.359Z,6.38
2019-04-14T06:27:45.967Z,6.42
2019-04-14T06:30:35.176Z,6.41
2019-04-14T06:33:06.703Z,6.47
2019-04-14T06:36:04.719Z,6.48
2019-04-14T06:38:33.364Z,6.58
2019-04-14T06:41:11.512Z,6.53
2019-04-14T06:43:48.370Z,6.42
2019-04-14T06:46:06.651Z,6.40
2019-04-14T06:48:33.259Z,6.39
2019-04-14T06:50:59.883Z,6.37
2019-04-14T06:53:26.494Z,6.40
2019-04-14T06:55:55.045Z,6.53
2019-04-14T06:58:21.832Z,6.66
2019-04-14T07:00:48.469Z,6.77
2019-04-14T07:03:15.072Z,6.92
2019-04-14T07:05:41.687Z,7.04
2019-04-14T07:08:08.328Z,7.22
2019-04-14T07:10:35.045Z,7.18
2019-04-14T07:13:01.662Z,7.09
2019-04-14T07:15:28.302Z,7.08
2019-04-14T07:17:54.988Z,7.06
2019-04-14T07:20:21.658Z,7.02
2019-04-14T07:22:48.372Z,7.04
2019-04-14T07:25:16.249Z,7.13
2019-04-14T07:27:42.882Z,7.26
2019-04-14T07:30:19.404Z,7.30
2019-04-14T07:33:02.357Z,7.37
2019-04-14T07:35:46.890Z,7.46
2019-04-14T07:38:23.902Z,7.57
2019-04-14T07:41:10.039Z,7.62
2019-04-14T07:44:05.388Z,7.76
2019-04-14T07:46:51.634Z,7.82
2019-04-14T07:49:43.889Z,7.93
2019-04-14T07:52:38.904Z,8.17
2019-04-14T07:55:16.758Z,8.35
2019-04-14T07:58:01.767Z,8.52
2019-04-14T08:00:46.733Z,8.63
2019-04-14T08:03:48.288Z,8.61
2019-04-14T08:06:15.371Z,8.61
2019-04-14T08:08:42.079Z,8.52
2019-04-14T08:11:08.699Z,8.41
2019-04-14T08:13:35.485Z,8.30
2019-04-14T08:16:02.183Z,8.25
2019-04-14T08:18:28.837Z,8.16
2019-04-14T08:20:55.549Z,8.19
2019-04-14T08:23:22.237Z,8.25
2019-04-14T08:25:48.978Z,8.27
2019-04-14T08:28:15.705Z,8.33
2019-04-14T08:30:42.329Z,8.43
2019-04-14T08:33:09.044Z,8.57
2019-04-14T08:35:35.658Z,8.74
2019-04-14T08:38:02.284Z,8.79
2019-04-14T08:40:29.071Z,8.91
2019-04-14T08:43:13.088Z,8.95
2019-04-14T08:46:07.834Z,8.92
2019-04-14T08:48:52.621Z,9.02
2019-04-14T08:51:26.667Z,9.25
2019-04-14T08:54:18.854Z,9.30
2019-04-14T08:57:23.092Z,9.30
2019-04-14T09:00:00.049Z,9.38
2019-04-14T09:02:44.616Z,9.52
2019-04-14T09:05:29.236Z,9.60
2019-04-14T09:08:05.543Z,9.74
2019-04-14T09:10:35.899Z,9.79
2019-04-14T09:13:02.514Z,9.88
2019-04-14T09:15:29.564Z,9.92
2019-04-14T09:17:56.185Z,9.76
2019-04-14T09:20:22.828Z,9.66
2019-04-14T09:22:49.434Z,9.64
2019-04-14T09:25:17.390Z,9.58
2019-04-14T09:27:44.099Z,9.57
2019-04-14T09:30:10.840Z,9.58
2019-04-14T09:32:37.465Z,9.64
2019-04-14T09:35:04.285Z,9.55
2019-04-14T09:37:30.916Z,9.63
2019-04-14T09:39:57.553Z,9.69
2019-04-14T09:42:24.196Z,9.80
2019-04-14T09:44:50.882Z,9.95
2019-04-14T09:47:17.509Z,10.15
2019-04-14T09:49:44.184Z,10.31
2019-04-14T09:52:10.794Z,10.67
2019-04-14T09:54:37.406Z,10.85
2019-04-14T09:57:04.032Z,10.96
2019-04-14T09:59:30.660Z,10.97
2019-04-14T10:01:57.299Z,10.81
2019-04-14T10:04:23.996Z,10.56
2019-04-14T10:06:50.618Z,10.28
2019-04-14T10:09:17.331Z,9.97
2019-04-14T10:11:49.003Z,9.88
2019-04-14T10:14:12.590Z,10.02
2019-04-14T10:16:39.243Z,10.55
2019-04-14T10:19:05.958Z,11.03
2019-04-14T10:21:32.592Z,10.96
2019-04-14T10:23:59.222Z,10.77
2019-04-14T10:26:25.975Z,10.68
2019-04-14T10:28:52.747Z,10.56
2019-04-14T10:31:19.447Z,10.45
2019-04-14T10:33:46.071Z,10.36
2019-04-14T10:36:12.687Z,10.28
2019-04-14T10:38:39.319Z,10.11
2019-04-14T10:41:06.499Z,10.05
2019-04-14T10:43:33.175Z,10.07
2019-04-14T10:45:59.806Z,10.12
2019-04-14T10:48:26.529Z,10.30
2019-04-14T10:50:53.126Z,10.41
2019-04-14T10:53:19.745Z,10.36
2019-04-14T10:55:46.379Z,10.38
2019-04-14T10:58:12.991Z,10.44
2019-04-14T11:00:39.587Z,10.56
2019-04-14T11:03:06.199Z,10.45
2019-04-14T11:08:18.929Z,10.95
2019-04-14T11:10:45.560Z,11.48
2019-04-14T11:13:12.177Z,11.76
2019-04-14T11:15:38.812Z,11.99
2019-04-14T11:18:05.430Z,12.13
2019-04-14T11:20:32.158Z,12.37
2019-04-14T11:23:03.610Z,12.37
2019-04-14T11:25:27.305Z,12.26
2019-04-14T11:27:53.930Z,12.19
2019-04-14T11:30:21.340Z,12.10
2019-04-14T11:33:07.403Z,12.05
2019-04-14T11:35:37.894Z,11.93
2019-04-14T11:38:23.991Z,11.64
2019-04-14T11:40:52.877Z,11.43
2019-04-14T11:43:19.572Z,11.18
2019-04-14T11:45:48.326Z,11.08
2019-04-14T11:48:15.059Z,10.82
2019-04-14T11:50:41.687Z,10.63
2019-04-14T11:53:08.394Z,10.52
2019-04-14T11:55:35.106Z,10.47
2019-04-14T11:58:01.816Z,10.59
2019-04-14T12:00:47.930Z,10.74
2019-04-14T12:03:34.099Z,10.86
2019-04-14T12:06:20.284Z,10.94
2019-04-14T12:09:06.381Z,10.84
2019-04-14T12:11:33.201Z,10.67
2019-04-14T12:13:59.827Z,10.50
2019-04-14T12:16:26.537Z,10.26
2019-04-14T12:18:53.137Z,10.15
2019-04-14T12:21:19.749Z,10.02
2019-04-14T12:23:46.373Z,9.96
2019-04-14T12:26:13.013Z,9.94
2019-04-14T12:28:40.478Z,10.02
2019-04-14T12:31:07.205Z,10.12
2019-04-14T12:33:33.819Z,10.23
2019-04-14T12:36:00.509Z,10.22
2019-04-14T12:38:27.121Z,10.16
2019-04-14T12:40:56.255Z,10.09
2019-04-14T12:43:45.129Z,10.01
2019-04-14T12:46:31.246Z,9.96
2019-04-14T12:49:26.189Z,9.98
2019-04-14T12:52:20.657Z,9.98
2019-04-14T12:54:39.248Z,9.91
2019-04-14T12:57:05.863Z,9.95
2019-04-14T13:02:46.911Z,9.89
2019-04-14T13:05:13.532Z,9.89
2019-04-14T13:07:40.141Z,9.87
2019-04-14T13:10:06.836Z,9.89
2019-04-14T13:12:33.519Z,9.85
2019-04-14T13:15:02.717Z,9.86
2019-04-14T13:17:54.408Z,9.90
2019-04-14T13:20:40.511Z,9.97
2019-04-14T13:23:07.131Z,9.96
2019-04-14T13:25:33.915Z,9.99
2019-04-14T13:28:00.534Z,9.95
2019-04-14T13:30:30.458Z,9.89
2019-04-14T13:32:57.049Z,9.83
2019-04-14T13:35:23.662Z,9.85
2019-04-14T13:37:50.274Z,9.91
2019-04-14T13:40:18.636Z,9.96
2019-04-14T13:42:45.291Z,10.00
2019-04-14T13:45:11.904Z,10.06
2019-04-14T13:47:38.547Z,10.13
2019-04-14T13:50:05.244Z,10.17
2019-04-14T13:52:31.873Z,10.25
2019-04-14T13:54:58.570Z,10.39
2019-04-14T13:57:25.278Z,10.47
2019-04-14T13:59:51.974Z,10.64
2019-04-14T14:02:18.606Z,10.66
2019-04-14T14:04:45.210Z,10.68
2019-04-14T14:07:11.843Z,10.73
2019-04-14T14:09:38.554Z,10.79
2019-04-14T14:12:15.597Z,10.69
2019-04-14T14:14:54.697Z,10.69
2019-04-14T14:17:39.972Z,10.63
2019-04-14T14:20:31.700Z,10.61
2019-04-14T14:23:04.872Z,10.63
2019-04-14T14:25:35.791Z,10.56
2019-04-14T14:28:02.420Z,10.48
2019-04-14T14:30:29.071Z,10.44
2019-04-14T14:32:55.786Z,10.40
2019-04-14T14:35:22.414Z,10.37
2019-04-14T14:37:49.034Z,10.36
2019-04-14T14:40:18.227Z,10.35
2019-04-14T14:42:44.842Z,10.32
2019-04-14T14:45:21.422Z,10.34
2019-04-14T14:48:07.548Z,10.33
2019-04-14T14:50:41.089Z,10.28
2019-04-14T14:53:12.356Z,10.31
2019-04-14T14:55:45.980Z,10.31
2019-04-14T14:58:12.716Z,10.36
2019-04-14T15:00:39.430Z,10.41
2019-04-14T15:03:08.059Z,10.44
2019-04-14T15:05:34.675Z,10.37
2019-04-14T15:08:01.314Z,10.27
2019-04-14T15:10:27.933Z,10.20
2019-04-14T15:12:54.678Z,10.09
2019-04-14T15:15:21.282Z,9.99
2019-04-14T15:17:47.892Z,9.92
2019-04-14T15:20:14.506Z,9.80
2019-04-14T15:22:41.107Z,9.67
2019-04-14T15:25:11.120Z,9.62
2019-04-14T15:27:37.881Z,9.59
2019-04-14T15:30:06.564Z,9.54
2019-04-14T15:32:33.312Z,9.53
2019-04-14T15:35:00.005Z,9.52
2019-04-14T15:37:26.723Z,9.52
2019-04-14T15:39:53.317Z,9.49
2019-04-14T15:42:19.947Z,9.45
2019-04-14T15:44:46.565Z,9.37
2019-04-14T15:47:13.448Z,9.35
2019-04-14T15:49:40.059Z,9.29
2019-04-14T15:52:06.680Z,9.31
2019-04-14T15:54:33.290Z,9.36
2019-04-14T16:00:04.548Z,9.50
2019-04-14T16:02:38.910Z,9.60
2019-04-14T16:05:28.378Z,9.65
2019-04-14T16:08:03.935Z,9.63
2019-04-14T16:10:44.994Z,9.57
2019-04-14T16:13:33.350Z,9.47
2019-04-14T16:16:22.357Z,9.36
2019-04-14T16:18:54.489Z,9.18
2019-04-14T16:21:21.103Z,9.08
2019-04-14T16:23:50.835Z,9.05
2019-04-14T16:26:45.051Z,9.03
2019-04-14T16:29:21.371Z,9.04
2019-04-14T16:32:10.300Z,9.10
2019-04-14T16:34:42.343Z,9.13
2019-04-14T16:37:08.969Z,9.08
2019-04-14T16:39:35.700Z,9.05
2019-04-14T16:42:02.359Z,9.03
2019-04-14T16:44:29.086Z,9.01
2019-04-14T16:46:55.738Z,9.02
2019-04-14T16:49:22.330Z,9.05
2019-04-14T16:51:58.046Z,9.05
2019-04-14T16:54:39.433Z,9.05
2019-04-14T16:57:24.268Z,9.03
2019-04-14T16:59:51.050Z,9.02
2019-04-14T17:02:17.764Z,9.01
2019-04-14T17:04:44.399Z,9.02
2019-04-14T17:07:11.288Z,9.03
2019-04-14T17:09:37.948Z,9.06
2019-04-14T17:12:04.768Z,9.07
2019-04-14T17:15:02.807Z,9.06
2019-04-14T17:17:47.585Z,9.06
2019-04-14T17:20:44.846Z,9.00
2019-04-14T17:23:29.214Z,8.96
2019-04-14T17:26:01.298Z,9.42
2019-04-14T17:28:53.700Z,9.82
2019-04-14T17:31:24.041Z,10.13
2019-04-14T17:33:56.846Z,10.03
2019-04-14T17:36:37.445Z,9.79
2019-04-14T17:39:10.186Z,9.56
2019-04-14T17:42:08.499Z,9.31
2019-04-14T17:44:42.483Z,9.13
2019-04-14T17:47:27.333Z,8.97
2019-04-14T17:50:00.010Z,8.86
2019-04-14T17:52:29.527Z,8.76
2019-04-14T17:55:24.853Z,8.67
2019-04-14T17:57:55.855Z,8.60
2019-04-14T18:00:28.000Z,8.50
2019-04-14T18:02:58.937Z,8.44
2019-04-14T18:05:46.902Z,8.39
2019-04-14T18:08:23.073Z,8.32
2019-04-14T18:10:54.991Z,8.27
2019-04-14T18:13:28.331Z,8.22
2019-04-14T18:16:05.076Z,8.18
2019-04-14T18:18:51.206Z,8.18
2019-04-14T18:21:17.913Z,8.26
2019-04-14T18:23:44.543Z,8.36
2019-04-14T18:26:11.184Z,8.38
2019-04-14T18:28:43.410Z,8.36
2019-04-14T18:31:38.503Z,8.29
2019-04-14T18:34:30.642Z,8.20
2019-04-14T18:37:05.288Z,8.07
2019-04-14T18:40:00.773Z,7.95
2019-04-14T18:42:55.900Z,7.88
2019-04-14T18:45:30.149Z,7.80
2019-04-14T18:48:19.583Z,7.75
2019-04-14T18:51:04.369Z,7.70
2019-04-14T18:53:53.104Z,7.65
2019-04-14T18:56:45.056Z,7.63
2019-04-14T18:59:46.190Z,7.57
2019-04-14T19:02:14.378Z,7.52
2019-04-14T19:04:41.109Z,7.45
2019-04-14T19:07:07.835Z,7.40
2019-04-14T19:09:34.469Z,7.35
2019-04-14T19:12:18.996Z,7.28
2019-04-14T19:14:46.078Z,7.23
2019-04-14T19:17:35.048Z,7.21
2019-04-14T19:20:02.660Z,7.20
2019-04-14T19:22:29.437Z,7.19
2019-04-14T19:25:07.450Z,7.19
2019-04-14T19:27:25.465Z,7.18
2019-04-14T19:29:52.457Z,7.19
2019-04-14T19:32:19.364Z,7.21
2019-04-14T19:34:46.420Z,7.22
2019-04-14T19:37:13.273Z,7.22
2019-04-14T19:39:40.020Z,7.20
2019-04-14T19:42:06.677Z,7.17
2019-04-14T19:44:33.423Z,7.14
2019-04-14T19:47:00.126Z,7.13
2019-04-14T19:49:26.791Z,7.09
2019-04-14T19:51:53.410Z,7.06
2019-04-14T19:54:20.059Z,7.04
2019-04-14T19:56:46.687Z,6.97
2019-04-14T19:59:16.132Z,6.90
2019-04-14T20:01:42.808Z,6.86
2019-04-14T20:04:09.551Z,6.86
2019-04-14T20:06:36.191Z,6.86
2019-04-14T20:09:04.252Z,6.84
2019-04-14T20:11:30.915Z,6.81
2019-04-14T20:13:57.529Z,6.77
2019-04-14T20:16:58.782Z,6.71
2019-04-14T20:19:33.623Z,6.64
2019-04-14T20:22:25.587Z,6.62
2019-04-14T20:24:59.352Z,6.60
2019-04-14T20:27:33.008Z,6.56
2019-04-14T20:30:02.603Z,6.56
2019-04-14T20:32:31.252Z,6.55
2019-04-14T20:34:57.963Z,6.54
2019-04-14T20:37:24.621Z,6.49
2019-04-14T20:39:51.307Z,6.48
2019-04-14T20:42:17.934Z,6.47
2019-04-14T20:44:44.538Z,6.48
2019-04-14T20:47:11.177Z,6.48
2019-04-14T20:49:37.872Z,6.46
2019-04-14T20:52:04.499Z,6.43
2019-04-14T20:54:31.105Z,6.40
2019-04-14T20:56:57.766Z,6.42
2019-04-14T20:59:24.364Z,6.43
2019-04-14T21:01:59.796Z,6.43
2019-04-14T21:04:45.915Z,6.43
2019-04-14T21:07:40.314Z,6.44
2019-04-14T21:10:20.453Z,6.41
2019-04-14T21:13:02.420Z,6.38
2019-04-14T21:15:36.264Z,6.39
2019-04-14T21:18:37.436Z,6.38
2019-04-14T21:21:20.526Z,6.37
2019-04-14T21:23:51.060Z,6.34
2019-04-14T21:26:35.216Z,6.33
2019-04-14T21:29:11.794Z,6.32
2019-04-14T21:31:56.135Z,6.28
2019-04-14T21:34:51.272Z,6.28
2019-04-14T21:37:40.917Z,6.25
2019-04-14T21:40:17.739Z,6.24
2019-04-14T21:42:44.519Z,6.17
2019-04-14T21:45:11.163Z,6.11
2019-04-14T21:47:37.821Z,6.08
2019-04-14T21:50:04.516Z,6.08
2019-04-14T21:52:49.950Z,6.09
2019-04-14T21:55:17.962Z,6.11
2019-04-14T21:58:07.357Z,6.10
2019-04-14T22:00:57.303Z,6.09
2019-04-14T22:03:36.808Z,6.09
2019-04-14T22:06:15.727Z,6.11
2019-04-14T22:08:46.583Z,6.10
2019-04-14T22:11:17.472Z,6.10
2019-04-14T22:13:44.202Z,6.10
2019-04-14T22:16:10.839Z,6.11
2019-04-14T22:18:37.469Z,6.10
2019-04-14T22:21:04.187Z,6.09
2019-04-14T22:23:30.787Z,6.10
2019-04-14T22:25:57.435Z,6.11
2019-04-14T22:28:24.107Z,6.14
2019-04-14T22:30:50.733Z,6.13
2019-04-14T22:33:17.328Z,6.13
2019-04-14T22:35:43.966Z,6.14
2019-04-14T22:38:10.617Z,6.14
2019-04-14T22:40:37.220Z,6.15
2019-04-14T22:43:03.827Z,6.08
2019-04-14T22:45:31.519Z,6.08
2019-04-14T22:47:58.156Z,6.07
2019-04-14T22:50:24.822Z,6.04
2019-04-14T22:52:51.461Z,6.04
2019-04-14T22:55:18.034Z,6.04
2019-04-14T22:57:44.691Z,6.02
2019-04-14T23:00:16.535Z,6.02
2019-04-14T23:02:59.709Z,6.00
2019-04-14T23:05:44.653Z,6.00
2019-04-14T23:08:48.426Z,5.96
2019-04-14T23:11:29.232Z,5.96
2019-04-14T23:14:23.947Z,5.93
2019-04-14T23:17:19.070Z,5.93
2019-04-14T23:19:49.990Z,5.94
2019-04-14T23:22:30.884Z,5.99
2019-04-14T23:24:57.490Z,6.02
2019-04-14T23:27:24.104Z,6.04
2019-04-14T23:29:50.708Z,6.06
2019-04-14T23:32:17.327Z,6.05
2019-04-14T23:34:43.940Z,6.05
2019-04-14T23:37:10.566Z,6.02
2019-04-14T23:39:37.165Z,6.03
2019-04-14T23:42:03.774Z,6.03
2019-04-14T23:44:30.392Z,6.03
2019-04-14T23:46:56.992Z,6.04
2019-04-14T23:49:23.737Z,6.07
2019-04-14T23:51:50.322Z,6.10
2019-04-14T23:54:16.944Z,6.10
2019-04-14T23:56:43.559Z,6.09
2019-04-14T23:59:10.282Z,6.08
